Pagina principale
METAR-TAF:

METAR-TAF

Aeroporti :

Cerklje ob Krki, Slovenia

latitudine: 45-53-59N, longitudine: 15-30-55E, altezza: 157 m

Osservazione

Il bollettino è stato emesso 18 minuti fa, alle 17:00 UTC
Vento 4 kt da nord-est, variando fra nord e est/nord-est
Temperature 1°C
Umidità 100%
Pressione 1017 hPa
Visibilità: 4000 m
Poco nuvoloso ad un'altezza di 1000 ft
Nebbia poco profondo, foschia

METAR: LJCE 201700Z 04004KT 010V070 4000 MIFG BR FEW010 01/01 Q1017 RMK GRN

Ora: 18:18 (17:18 UTC)

Previsione

Il bollettino è stato emesso 1 ora e 30 minuti fa, alle 15:48 UTC
Previsione valida dal 20 alle 16 UTC al 20 alle 24 UTC
Vento 5 kt da ovest/sud-ovest
Visibilità 10 km o più
Poco nuvoloso ad un'altezza di 3000 ft
Probabilità 30% :
Temporaneamente
dal 20 alle 16 UTC al 20 alle 22 UTC
Visibilità: 1500 m
Nuvoloso ad un'altezza di 300 ft
foschia

TAF: LJCE 201548Z 2016/2024 25005KT 9999 FEW030 PROB30 TEMPO 2016/2022 1500 BR BKN003

Osservazioni e previsioni meteorologiche di più di 4000 aeroporti (messaggi METAR e TAF).

Le stazioni disponibili sono rappresentate dai dischi gialli e rossi sulla carta.

Puntare il mouse per vedere il nome della stazione.

Clicca sopra per visualizzare le osservazioni e previsioni meteorologiche.

Per cambiare la mappa : fare clic sui pulsanti verdi con una croce nera per ingrandire, il pulsante verde con un trattino per diminuire, o sulla freccia verde per le mappe adiacenti.


METAR-TAF: